sensor_id;sensor_type;location;lat;lon;timestamp;P1;durP1;ratioP1;P2;durP2;ratioP2
62584;SDS011;48643;51.670;5.808;2022-08-24T00:01:20;20.63;;;13.60;;
62584;SDS011;48643;51.670;5.808;2022-08-24T00:03:48;20.33;;;13.45;;
62584;SDS011;48643;51.670;5.808;2022-08-24T00:06:23;22.08;;;13.43;;
62584;SDS011;48643;51.670;5.808;2022-08-24T00:08:51;20.53;;;13.47;;
62584;SDS011;48643;51.670;5.808;2022-08-24T00:11:19;18.58;;;13.55;;
62584;SDS011;48643;51.670;5.808;2022-08-24T00:13:47;21.63;;;13.65;;
62584;SDS011;48643;51.670;5.808;2022-08-24T00:16:15;18.90;;;13.68;;
62584;SDS011;48643;51.670;5.808;2022-08-24T00:18:43;19.98;;;13.27;;
62584;SDS011;48643;51.670;5.808;2022-08-24T00:21:11;21.95;;;13.10;;
62584;SDS011;48643;51.670;5.808;2022-08-24T00:23:38;18.35;;;13.10;;
62584;SDS011;48643;51.670;5.808;2022-08-24T00:26:06;21.50;;;13.25;;
62584;SDS011;48643;51.670;5.808;2022-08-24T00:28:33;18.42;;;12.55;;
62584;SDS011;48643;51.670;5.808;2022-08-24T00:31:01;21.33;;;13.48;;
62584;SDS011;48643;51.670;5.808;2022-08-24T00:33:30;18.92;;;12.75;;
62584;SDS011;48643;51.670;5.808;2022-08-24T00:35:58;15.82;;;11.60;;
62584;SDS011;48643;51.670;5.808;2022-08-24T00:38:25;22.02;;;12.63;;
62584;SDS011;48643;51.670;5.808;2022-08-24T00:40:55;17.95;;;13.00;;
62584;SDS011;48643;51.670;5.808;2022-08-24T00:43:24;19.27;;;13.18;;
62584;SDS011;48643;51.670;5.808;2022-08-24T00:48:26;18.67;;;12.52;;
62584;SDS011;48643;51.670;5.808;2022-08-24T00:50:56;18.67;;;12.45;;
62584;SDS011;48643;51.670;5.808;2022-08-24T00:53:26;18.60;;;12.65;;
62584;SDS011;48643;51.670;5.808;2022-08-24T00:55:55;18.45;;;12.65;;
62584;SDS011;48643;51.670;5.808;2022-08-24T00:58:27;20.83;;;12.98;;
62584;SDS011;48643;51.670;5.808;2022-08-24T01:00:57;16.40;;;11.82;;
62584;SDS011;48643;51.670;5.808;2022-08-24T01:03:25;20.65;;;13.13;;
62584;SDS011;48643;51.670;5.808;2022-08-24T01:05:53;18.27;;;12.00;;
62584;SDS011;48643;51.670;5.808;2022-08-24T01:08:21;20.77;;;12.60;;
62584;SDS011;48643;51.670;5.808;2022-08-24T01:10:50;16.90;;;12.52;;
62584;SDS011;48643;51.670;5.808;2022-08-24T01:13:18;18.20;;;12.00;;
62584;SDS011;48643;51.670;5.808;2022-08-24T01:15:46;19.00;;;13.10;;
62584;SDS011;48643;51.670;5.808;2022-08-24T01:18:18;20.42;;;12.77;;
62584;SDS011;48643;51.670;5.808;2022-08-24T01:23:36;20.88;;;13.13;;
62584;SDS011;48643;51.670;5.808;2022-08-24T01:26:06;21.00;;;14.25;;
62584;SDS011;48643;51.670;5.808;2022-08-24T01:28:36;27.38;;;15.63;;
62584;SDS011;48643;51.670;5.808;2022-08-24T01:31:06;21.58;;;14.40;;
62584;SDS011;48643;51.670;5.808;2022-08-24T01:33:34;23.45;;;16.10;;
62584;SDS011;48643;51.670;5.808;2022-08-24T01:38:35;23.95;;;15.63;;
62584;SDS011;48643;51.670;5.808;2022-08-24T01:41:03;27.70;;;15.65;;
62584;SDS011;48643;51.670;5.808;2022-08-24T01:43:30;24.42;;;14.90;;
62584;SDS011;48643;51.670;5.808;2022-08-24T01:46:04;22.23;;;15.27;;
62584;SDS011;48643;51.670;5.808;2022-08-24T01:48:32;26.42;;;15.63;;
62584;SDS011;48643;51.670;5.808;2022-08-24T01:50:59;25.23;;;15.95;;
62584;SDS011;48643;51.670;5.808;2022-08-24T01:53:28;24.40;;;17.00;;
62584;SDS011;48643;51.670;5.808;2022-08-24T01:55:55;31.63;;;17.38;;
62584;SDS011;48643;51.670;5.808;2022-08-24T01:58:23;24.67;;;16.40;;
62584;SDS011;48643;51.670;5.808;2022-08-24T02:00:50;23.05;;;14.23;;
62584;SDS011;48643;51.670;5.808;2022-08-24T02:03:18;20.13;;;13.80;;
62584;SDS011;48643;51.670;5.808;2022-08-24T02:05:54;22.50;;;14.20;;
62584;SDS011;48643;51.670;5.808;2022-08-24T02:08:21;21.02;;;13.88;;
62584;SDS011;48643;51.670;5.808;2022-08-24T02:10:50;22.23;;;13.75;;
62584;SDS011;48643;51.670;5.808;2022-08-24T02:13:23;22.70;;;14.05;;
62584;SDS011;48643;51.670;5.808;2022-08-24T02:15:50;24.02;;;15.73;;
62584;SDS011;48643;51.670;5.808;2022-08-24T02:18:17;23.55;;;16.40;;
62584;SDS011;48643;51.670;5.808;2022-08-24T02:20:45;21.52;;;15.85;;
62584;SDS011;48643;51.670;5.808;2022-08-24T02:23:13;23.17;;;14.70;;
62584;SDS011;48643;51.670;5.808;2022-08-24T02:25:41;24.02;;;16.08;;
62584;SDS011;48643;51.670;5.808;2022-08-24T02:28:08;24.48;;;16.27;;
62584;SDS011;48643;51.670;5.808;2022-08-24T02:30:36;24.08;;;16.02;;
62584;SDS011;48643;51.670;5.808;2022-08-24T02:33:04;25.27;;;17.15;;
62584;SDS011;48643;51.670;5.808;2022-08-24T02:35:32;25.17;;;16.10;;
62584;SDS011;48643;51.670;5.808;2022-08-24T02:38:00;24.67;;;15.98;;
62584;SDS011;48643;51.670;5.808;2022-08-24T02:40:29;18.13;;;14.75;;
62584;SDS011;48643;51.670;5.808;2022-08-24T02:42:57;23.40;;;15.73;;
62584;SDS011;48643;51.670;5.808;2022-08-24T02:45:25;23.90;;;15.85;;
62584;SDS011;48643;51.670;5.808;2022-08-24T02:47:53;20.77;;;14.88;;
62584;SDS011;48643;51.670;5.808;2022-08-24T02:50:21;27.02;;;15.80;;
62584;SDS011;48643;51.670;5.808;2022-08-24T02:52:49;24.45;;;15.95;;
62584;SDS011;48643;51.670;5.808;2022-08-24T02:55:17;27.15;;;17.17;;
62584;SDS011;48643;51.670;5.808;2022-08-24T02:57:49;27.50;;;17.83;;
62584;SDS011;48643;51.670;5.808;2022-08-24T03:00:18;23.75;;;16.77;;
62584;SDS011;48643;51.670;5.808;2022-08-24T03:02:49;22.38;;;17.08;;
62584;SDS011;48643;51.670;5.808;2022-08-24T03:05:17;22.92;;;18.65;;
62584;SDS011;48643;51.670;5.808;2022-08-24T03:07:45;26.40;;;18.85;;
62584;SDS011;48643;51.670;5.808;2022-08-24T03:10:13;26.60;;;19.15;;
62584;SDS011;48643;51.670;5.808;2022-08-24T03:12:40;23.60;;;17.38;;
62584;SDS011;48643;51.670;5.808;2022-08-24T03:15:08;29.13;;;19.63;;
62584;SDS011;48643;51.670;5.808;2022-08-24T03:17:37;26.33;;;18.88;;
62584;SDS011;48643;51.670;5.808;2022-08-24T03:20:07;26.75;;;19.23;;
62584;SDS011;48643;51.670;5.808;2022-08-24T03:22:37;26.92;;;18.02;;
62584;SDS011;48643;51.670;5.808;2022-08-24T03:25:05;27.00;;;19.27;;
62584;SDS011;48643;51.670;5.808;2022-08-24T03:27:32;26.48;;;18.48;;
62584;SDS011;48643;51.670;5.808;2022-08-24T03:30:00;27.45;;;18.08;;
62584;SDS011;48643;51.670;5.808;2022-08-24T03:32:27;22.63;;;16.67;;
62584;SDS011;48643;51.670;5.808;2022-08-24T03:34:55;24.30;;;16.85;;
62584;SDS011;48643;51.670;5.808;2022-08-24T03:37:22;25.58;;;18.25;;
62584;SDS011;48643;51.670;5.808;2022-08-24T03:39:50;26.05;;;17.98;;
62584;SDS011;48643;51.670;5.808;2022-08-24T03:42:18;27.85;;;18.70;;
62584;SDS011;48643;51.670;5.808;2022-08-24T03:44:46;23.80;;;17.42;;
62584;SDS011;48643;51.670;5.808;2022-08-24T03:47:14;25.05;;;17.85;;
62584;SDS011;48643;51.670;5.808;2022-08-24T03:49:42;25.08;;;17.80;;
62584;SDS011;48643;51.670;5.808;2022-08-24T03:52:10;23.33;;;17.30;;
62584;SDS011;48643;51.670;5.808;2022-08-24T03:54:39;22.80;;;17.90;;
62584;SDS011;48643;51.670;5.808;2022-08-24T03:57:06;25.67;;;17.00;;
62584;SDS011;48643;51.670;5.808;2022-08-24T03:59:34;23.85;;;17.80;;
62584;SDS011;48643;51.670;5.808;2022-08-24T04:02:11;24.25;;;17.55;;
62584;SDS011;48643;51.670;5.808;2022-08-24T04:04:40;22.73;;;16.83;;
62584;SDS011;48643;51.670;5.808;2022-08-24T04:07:09;23.90;;;17.33;;
62584;SDS011;48643;51.670;5.808;2022-08-24T04:09:37;23.98;;;17.38;;
62584;SDS011;48643;51.670;5.808;2022-08-24T04:12:04;26.38;;;18.27;;
62584;SDS011;48643;51.670;5.808;2022-08-24T04:14:32;25.70;;;19.27;;
62584;SDS011;48643;51.670;5.808;2022-08-24T04:17:06;27.42;;;19.13;;
62584;SDS011;48643;51.670;5.808;2022-08-24T04:19:39;25.83;;;19.85;;
62584;SDS011;48643;51.670;5.808;2022-08-24T04:22:28;28.73;;;20.02;;
62584;SDS011;48643;51.670;5.808;2022-08-24T04:24:56;31.10;;;19.83;;
62584;SDS011;48643;51.670;5.808;2022-08-24T04:27:26;30.90;;;20.38;;
62584;SDS011;48643;51.670;5.808;2022-08-24T04:29:54;29.20;;;19.30;;
62584;SDS011;48643;51.670;5.808;2022-08-24T04:32:24;28.63;;;19.08;;
62584;SDS011;48643;51.670;5.808;2022-08-24T04:37:21;26.42;;;18.27;;
62584;SDS011;48643;51.670;5.808;2022-08-24T04:39:55;23.73;;;17.70;;
62584;SDS011;48643;51.670;5.808;2022-08-24T04:42:31;25.13;;;17.35;;
62584;SDS011;48643;51.670;5.808;2022-08-24T04:44:59;25.85;;;18.02;;
62584;SDS011;48643;51.670;5.808;2022-08-24T04:47:27;28.00;;;18.63;;
62584;SDS011;48643;51.670;5.808;2022-08-24T04:49:54;24.45;;;18.23;;
62584;SDS011;48643;51.670;5.808;2022-08-24T04:52:21;26.45;;;18.90;;
62584;SDS011;48643;51.670;5.808;2022-08-24T04:54:49;26.92;;;19.45;;
62584;SDS011;48643;51.670;5.808;2022-08-24T04:57:20;34.58;;;19.88;;
62584;SDS011;48643;51.670;5.808;2022-08-24T04:59:48;27.52;;;20.27;;
62584;SDS011;48643;51.670;5.808;2022-08-24T05:02:15;28.80;;;19.83;;
62584;SDS011;48643;51.670;5.808;2022-08-24T05:04:46;27.77;;;21.10;;
62584;SDS011;48643;51.670;5.808;2022-08-24T05:07:15;30.87;;;21.73;;
62584;SDS011;48643;51.670;5.808;2022-08-24T05:09:44;28.45;;;21.40;;
62584;SDS011;48643;51.670;5.808;2022-08-24T05:12:12;31.27;;;21.20;;
62584;SDS011;48643;51.670;5.808;2022-08-24T05:14:48;37.67;;;19.67;;
62584;SDS011;48643;51.670;5.808;2022-08-24T05:17:16;44.13;;;19.42;;
62584;SDS011;48643;51.670;5.808;2022-08-24T05:19:43;36.28;;;20.63;;
62584;SDS011;48643;51.670;5.808;2022-08-24T05:22:11;33.83;;;19.90;;
62584;SDS011;48643;51.670;5.808;2022-08-24T05:24:44;30.63;;;20.45;;
62584;SDS011;48643;51.670;5.808;2022-08-24T05:27:12;38.25;;;21.92;;
62584;SDS011;48643;51.670;5.808;2022-08-24T05:29:40;34.92;;;22.33;;
62584;SDS011;48643;51.670;5.808;2022-08-24T05:32:08;35.30;;;22.75;;
62584;SDS011;48643;51.670;5.808;2022-08-24T05:34:37;33.80;;;21.35;;
62584;SDS011;48643;51.670;5.808;2022-08-24T05:37:04;34.55;;;23.30;;
62584;SDS011;48643;51.670;5.808;2022-08-24T05:39:55;30.25;;;21.83;;
62584;SDS011;48643;51.670;5.808;2022-08-24T05:42:22;37.38;;;23.38;;
62584;SDS011;48643;51.670;5.808;2022-08-24T05:44:50;32.55;;;23.42;;
62584;SDS011;48643;51.670;5.808;2022-08-24T05:47:20;33.17;;;23.25;;
62584;SDS011;48643;51.670;5.808;2022-08-24T05:49:49;32.45;;;23.17;;
62584;SDS011;48643;51.670;5.808;2022-08-24T05:52:20;32.13;;;23.88;;
62584;SDS011;48643;51.670;5.808;2022-08-24T05:54:52;32.38;;;23.50;;
62584;SDS011;48643;51.670;5.808;2022-08-24T05:57:20;38.03;;;23.65;;
62584;SDS011;48643;51.670;5.808;2022-08-24T06:00:03;33.67;;;24.60;;
62584;SDS011;48643;51.670;5.808;2022-08-24T06:02:41;34.20;;;24.63;;
62584;SDS011;48643;51.670;5.808;2022-08-24T06:05:09;39.73;;;25.80;;
62584;SDS011;48643;51.670;5.808;2022-08-24T06:07:40;35.83;;;25.95;;
62584;SDS011;48643;51.670;5.808;2022-08-24T06:10:09;39.47;;;27.75;;
62584;SDS011;48643;51.670;5.808;2022-08-24T06:12:56;49.95;;;29.77;;
62584;SDS011;48643;51.670;5.808;2022-08-24T06:15:24;43.88;;;31.40;;
62584;SDS011;48643;51.670;5.808;2022-08-24T06:17:52;43.75;;;31.25;;
62584;SDS011;48643;51.670;5.808;2022-08-24T06:20:20;45.60;;;33.30;;
62584;SDS011;48643;51.670;5.808;2022-08-24T06:22:48;47.65;;;33.22;;
62584;SDS011;48643;51.670;5.808;2022-08-24T06:25:17;61.87;;;38.20;;
62584;SDS011;48643;51.670;5.808;2022-08-24T06:28:03;54.85;;;39.17;;
62584;SDS011;48643;51.670;5.808;2022-08-24T06:30:31;57.08;;;40.05;;
62584;SDS011;48643;51.670;5.808;2022-08-24T06:33:13;55.35;;;38.22;;
62584;SDS011;48643;51.670;5.808;2022-08-24T06:35:42;51.42;;;39.70;;
62584;SDS011;48643;51.670;5.808;2022-08-24T06:38:13;53.25;;;37.78;;
62584;SDS011;48643;51.670;5.808;2022-08-24T06:40:43;49.33;;;36.33;;
62584;SDS011;48643;51.670;5.808;2022-08-24T06:43:11;51.33;;;36.55;;
62584;SDS011;48643;51.670;5.808;2022-08-24T06:45:46;51.28;;;35.95;;
62584;SDS011;48643;51.670;5.808;2022-08-24T06:48:16;48.38;;;30.95;;
62584;SDS011;48643;51.670;5.808;2022-08-24T06:50:46;47.92;;;32.25;;
62584;SDS011;48643;51.670;5.808;2022-08-24T06:53:15;45.30;;;31.65;;
62584;SDS011;48643;51.670;5.808;2022-08-24T06:55:45;47.10;;;30.85;;
62584;SDS011;48643;51.670;5.808;2022-08-24T06:58:13;45.38;;;31.08;;
62584;SDS011;48643;51.670;5.808;2022-08-24T07:00:40;42.65;;;29.08;;
62584;SDS011;48643;51.670;5.808;2022-08-24T07:03:08;43.40;;;28.75;;
62584;SDS011;48643;51.670;5.808;2022-08-24T07:05:53;40.92;;;27.63;;
62584;SDS011;48643;51.670;5.808;2022-08-24T07:08:34;45.83;;;27.95;;
62584;SDS011;48643;51.670;5.808;2022-08-24T07:11:03;38.55;;;26.83;;
62584;SDS011;48643;51.670;5.808;2022-08-24T07:13:32;39.35;;;25.58;;
62584;SDS011;48643;51.670;5.808;2022-08-24T07:15:59;37.28;;;27.23;;
62584;SDS011;48643;51.670;5.808;2022-08-24T07:18:30;37.20;;;26.13;;
62584;SDS011;48643;51.670;5.808;2022-08-24T07:21:01;36.05;;;24.52;;
62584;SDS011;48643;51.670;5.808;2022-08-24T07:23:45;41.17;;;27.45;;
62584;SDS011;48643;51.670;5.808;2022-08-24T07:26:14;35.83;;;24.73;;
62584;SDS011;48643;51.670;5.808;2022-08-24T07:28:52;35.83;;;24.48;;
62584;SDS011;48643;51.670;5.808;2022-08-24T07:31:21;37.95;;;25.48;;
62584;SDS011;48643;51.670;5.808;2022-08-24T07:33:57;35.58;;;23.52;;
62584;SDS011;48643;51.670;5.808;2022-08-24T07:36:25;31.60;;;22.10;;
62584;SDS011;48643;51.670;5.808;2022-08-24T07:38:55;38.35;;;22.10;;
62584;SDS011;48643;51.670;5.808;2022-08-24T07:41:23;34.30;;;23.90;;
62584;SDS011;48643;51.670;5.808;2022-08-24T07:44:16;30.67;;;21.63;;
62584;SDS011;48643;51.670;5.808;2022-08-24T07:46:44;43.47;;;23.67;;
62584;SDS011;48643;51.670;5.808;2022-08-24T07:49:13;28.40;;;19.77;;
62584;SDS011;48643;51.670;5.808;2022-08-24T07:52:02;33.17;;;19.45;;
62584;SDS011;48643;51.670;5.808;2022-08-24T07:54:29;31.38;;;18.58;;
62584;SDS011;48643;51.670;5.808;2022-08-24T07:57:00;28.98;;;17.48;;
62584;SDS011;48643;51.670;5.808;2022-08-24T07:59:31;30.23;;;17.10;;
62584;SDS011;48643;51.670;5.808;2022-08-24T08:01:59;30.50;;;16.30;;
62584;SDS011;48643;51.670;5.808;2022-08-24T08:04:27;31.03;;;17.37;;
62584;SDS011;48643;51.670;5.808;2022-08-24T08:06:55;29.25;;;16.25;;
62584;SDS011;48643;51.670;5.808;2022-08-24T08:09:23;23.33;;;15.00;;
62584;SDS011;48643;51.670;5.808;2022-08-24T08:11:50;27.63;;;17.75;;
62584;SDS011;48643;51.670;5.808;2022-08-24T08:14:18;24.02;;;14.38;;
62584;SDS011;48643;51.670;5.808;2022-08-24T08:16:45;22.30;;;14.95;;
62584;SDS011;48643;51.670;5.808;2022-08-24T08:19:13;25.65;;;15.25;;
62584;SDS011;48643;51.670;5.808;2022-08-24T08:21:46;21.58;;;13.23;;
62584;SDS011;48643;51.670;5.808;2022-08-24T08:24:41;23.15;;;15.25;;
62584;SDS011;48643;51.670;5.808;2022-08-24T08:27:11;22.17;;;12.77;;
62584;SDS011;48643;51.670;5.808;2022-08-24T08:29:40;21.48;;;13.95;;
62584;SDS011;48643;51.670;5.808;2022-08-24T08:32:11;25.83;;;13.35;;
62584;SDS011;48643;51.670;5.808;2022-08-24T08:34:43;21.05;;;12.68;;
62584;SDS011;48643;51.670;5.808;2022-08-24T08:37:12;19.70;;;11.18;;
62584;SDS011;48643;51.670;5.808;2022-08-24T08:39:40;21.63;;;11.63;;
62584;SDS011;48643;51.670;5.808;2022-08-24T08:42:24;15.50;;;9.25;;
62584;SDS011;48643;51.670;5.808;2022-08-24T08:44:59;15.25;;;8.25;;
62584;SDS011;48643;51.670;5.808;2022-08-24T08:50:12;13.63;;;7.28;;
62584;SDS011;48643;51.670;5.808;2022-08-24T09:03:26;10.88;;;4.82;;
62584;SDS011;48643;51.670;5.808;2022-08-24T09:09:06;13.45;;;5.72;;
62584;SDS011;48643;51.670;5.808;2022-08-24T09:17:38;11.27;;;5.53;;
62584;SDS011;48643;51.670;5.808;2022-08-24T09:22:25;9.57;;;3.65;;
62584;SDS011;48643;51.670;5.808;2022-08-24T09:28:06;5.15;;;3.40;;
62584;SDS011;48643;51.670;5.808;2022-08-24T09:30:38;9.30;;;3.60;;
62584;SDS011;48643;51.670;5.808;2022-08-24T09:38:21;6.68;;;2.58;;
62584;SDS011;48643;51.670;5.808;2022-08-24T09:57:32;5.45;;;2.50;;
62584;SDS011;48643;51.670;5.808;2022-08-24T10:03:05;10.35;;;2.80;;
62584;SDS011;48643;51.670;5.808;2022-08-24T10:05:46;4.63;;;2.60;;
62584;SDS011;48643;51.670;5.808;2022-08-24T10:13:47;6.70;;;3.70;;
62584;SDS011;48643;51.670;5.808;2022-08-24T10:21:57;5.68;;;3.08;;
62584;SDS011;48643;51.670;5.808;2022-08-24T10:24:43;5.38;;;2.90;;
62584;SDS011;48643;51.670;5.808;2022-08-24T10:35:51;6.22;;;2.40;;
62584;SDS011;48643;51.670;5.808;2022-08-24T10:46:51;4.32;;;2.30;;
62584;SDS011;48643;51.670;5.808;2022-08-24T10:52:00;5.93;;;2.67;;
62584;SDS011;48643;51.670;5.808;2022-08-24T10:54:36;11.02;;;2.80;;
62584;SDS011;48643;51.670;5.808;2022-08-24T10:57:07;6.45;;;2.40;;
62584;SDS011;48643;51.670;5.808;2022-08-24T11:04:59;12.80;;;2.80;;
62584;SDS011;48643;51.670;5.808;2022-08-24T11:07:27;8.68;;;3.17;;
62584;SDS011;48643;51.670;5.808;2022-08-24T11:09:55;13.13;;;3.53;;
62584;SDS011;48643;51.670;5.808;2022-08-24T11:12:28;4.15;;;2.63;;
62584;SDS011;48643;51.670;5.808;2022-08-24T11:15:00;7.63;;;2.70;;
62584;SDS011;48643;51.670;5.808;2022-08-24T11:17:28;4.50;;;2.53;;
62584;SDS011;48643;51.670;5.808;2022-08-24T11:19:56;6.13;;;2.90;;
62584;SDS011;48643;51.670;5.808;2022-08-24T11:25:07;5.30;;;2.60;;
62584;SDS011;48643;51.670;5.808;2022-08-24T11:27:37;10.57;;;2.80;;
62584;SDS011;48643;51.670;5.808;2022-08-24T11:30:21;6.25;;;2.70;;
62584;SDS011;48643;51.670;5.808;2022-08-24T11:32:54;5.10;;;2.88;;
62584;SDS011;48643;51.670;5.808;2022-08-24T11:38:07;8.15;;;2.85;;
62584;SDS011;48643;51.670;5.808;2022-08-24T11:40:36;11.15;;;2.88;;
62584;SDS011;48643;51.670;5.808;2022-08-24T11:48:06;5.85;;;2.72;;
62584;SDS011;48643;51.670;5.808;2022-08-24T11:55:45;7.00;;;2.60;;
62584;SDS011;48643;51.670;5.808;2022-08-24T11:58:45;4.57;;;2.60;;
62584;SDS011;48643;51.670;5.808;2022-08-24T12:01:16;5.07;;;2.47;;
62584;SDS011;48643;51.670;5.808;2022-08-24T12:06:35;7.50;;;2.60;;
62584;SDS011;48643;51.670;5.808;2022-08-24T12:14:22;5.28;;;2.75;;
62584;SDS011;48643;51.670;5.808;2022-08-24T12:16:59;3.83;;;2.50;;
62584;SDS011;48643;51.670;5.808;2022-08-24T12:19:29;9.50;;;2.90;;
62584;SDS011;48643;51.670;5.808;2022-08-24T12:21:58;8.75;;;2.80;;
62584;SDS011;48643;51.670;5.808;2022-08-24T12:26:55;8.18;;;2.70;;
62584;SDS011;48643;51.670;5.808;2022-08-24T12:29:34;8.02;;;2.65;;
62584;SDS011;48643;51.670;5.808;2022-08-24T12:32:08;14.18;;;2.90;;
62584;SDS011;48643;51.670;5.808;2022-08-24T12:42:49;11.77;;;2.65;;
62584;SDS011;48643;51.670;5.808;2022-08-24T12:45:19;7.95;;;3.00;;
62584;SDS011;48643;51.670;5.808;2022-08-24T12:50:29;7.30;;;2.53;;
62584;SDS011;48643;51.670;5.808;2022-08-24T12:55:49;5.55;;;2.80;;
62584;SDS011;48643;51.670;5.808;2022-08-24T13:01:03;9.00;;;2.80;;
62584;SDS011;48643;51.670;5.808;2022-08-24T13:03:33;7.72;;;2.58;;
62584;SDS011;48643;51.670;5.808;2022-08-24T13:06:03;4.68;;;2.50;;
62584;SDS011;48643;51.670;5.808;2022-08-24T13:08:38;8.80;;;2.60;;
62584;SDS011;48643;51.670;5.808;2022-08-24T13:11:09;8.02;;;2.85;;
62584;SDS011;48643;51.670;5.808;2022-08-24T13:13:40;7.47;;;2.72;;
62584;SDS011;48643;51.670;5.808;2022-08-24T13:16:08;5.97;;;2.85;;
62584;SDS011;48643;51.670;5.808;2022-08-24T13:18:47;14.60;;;3.00;;
62584;SDS011;48643;51.670;5.808;2022-08-24T13:21:33;9.43;;;3.30;;
62584;SDS011;48643;51.670;5.808;2022-08-24T13:29:38;9.35;;;6.45;;
62584;SDS011;48643;51.670;5.808;2022-08-24T13:32:08;13.30;;;3.13;;
62584;SDS011;48643;51.670;5.808;2022-08-24T13:34:40;14.68;;;3.15;;
62584;SDS011;48643;51.670;5.808;2022-08-24T13:37:14;12.38;;;3.13;;
62584;SDS011;48643;51.670;5.808;2022-08-24T13:39:48;7.93;;;2.90;;
62584;SDS011;48643;51.670;5.808;2022-08-24T13:47:26;10.57;;;2.50;;
62584;SDS011;48643;51.670;5.808;2022-08-24T13:50:06;4.73;;;2.60;;
62584;SDS011;48643;51.670;5.808;2022-08-24T13:52:38;6.75;;;2.60;;
62584;SDS011;48643;51.670;5.808;2022-08-24T14:05:32;7.95;;;2.60;;
62584;SDS011;48643;51.670;5.808;2022-08-24T14:13:19;7.55;;;2.58;;
62584;SDS011;48643;51.670;5.808;2022-08-24T14:15:54;8.02;;;2.53;;
62584;SDS011;48643;51.670;5.808;2022-08-24T14:21:18;7.13;;;2.40;;
62584;SDS011;48643;51.670;5.808;2022-08-24T14:23:51;8.23;;;2.90;;
62584;SDS011;48643;51.670;5.808;2022-08-24T14:34:42;7.25;;;2.40;;
62584;SDS011;48643;51.670;5.808;2022-08-24T14:43:34;6.10;;;2.70;;
62584;SDS011;48643;51.670;5.808;2022-08-24T14:48:09;4.25;;;2.63;;
62584;SDS011;48643;51.670;5.808;2022-08-24T14:50:42;8.27;;;3.15;;
62584;SDS011;48643;51.670;5.808;2022-08-24T15:06:28;5.30;;;2.72;;
62584;SDS011;48643;51.670;5.808;2022-08-24T15:09:07;12.77;;;3.17;;
62584;SDS011;48643;51.670;5.808;2022-08-24T15:11:36;12.55;;;2.90;;
62584;SDS011;48643;51.670;5.808;2022-08-24T15:14:05;7.50;;;2.80;;
62584;SDS011;48643;51.670;5.808;2022-08-24T15:16:44;7.22;;;2.80;;
62584;SDS011;48643;51.670;5.808;2022-08-24T15:22:00;6.38;;;2.80;;
62584;SDS011;48643;51.670;5.808;2022-08-24T15:27:14;8.52;;;2.58;;
62584;SDS011;48643;51.670;5.808;2022-08-24T15:29:52;5.28;;;2.60;;
62584;SDS011;48643;51.670;5.808;2022-08-24T15:32:21;10.90;;;2.90;;
62584;SDS011;48643;51.670;5.808;2022-08-24T15:34:54;13.38;;;3.03;;
62584;SDS011;48643;51.670;5.808;2022-08-24T15:37:25;5.88;;;2.63;;
62584;SDS011;48643;51.670;5.808;2022-08-24T15:39:52;8.07;;;2.83;;
62584;SDS011;48643;51.670;5.808;2022-08-24T15:42:20;5.53;;;2.57;;
62584;SDS011;48643;51.670;5.808;2022-08-24T15:44:47;5.70;;;2.63;;
62584;SDS011;48643;51.670;5.808;2022-08-24T15:47:20;14.52;;;3.53;;
62584;SDS011;48643;51.670;5.808;2022-08-24T15:50:00;9.30;;;2.88;;
62584;SDS011;48643;51.670;5.808;2022-08-24T15:52:41;7.78;;;3.08;;
62584;SDS011;48643;51.670;5.808;2022-08-24T15:55:14;9.65;;;3.10;;
62584;SDS011;48643;51.670;5.808;2022-08-24T15:57:42;11.93;;;2.90;;
62584;SDS011;48643;51.670;5.808;2022-08-24T16:00:11;12.27;;;2.90;;
62584;SDS011;48643;51.670;5.808;2022-08-24T16:02:39;7.63;;;3.03;;
62584;SDS011;48643;51.670;5.808;2022-08-24T16:05:34;6.77;;;2.90;;
62584;SDS011;48643;51.670;5.808;2022-08-24T16:15:44;13.60;;;2.78;;
62584;SDS011;48643;51.670;5.808;2022-08-24T16:18:12;12.10;;;2.85;;
62584;SDS011;48643;51.670;5.808;2022-08-24T16:20:39;19.83;;;3.23;;
62584;SDS011;48643;51.670;5.808;2022-08-24T16:23:08;5.73;;;2.47;;
62584;SDS011;48643;51.670;5.808;2022-08-24T16:25:37;9.45;;;2.83;;
62584;SDS011;48643;51.670;5.808;2022-08-24T16:33:05;6.72;;;2.67;;
62584;SDS011;48643;51.670;5.808;2022-08-24T16:35:32;9.18;;;2.40;;
62584;SDS011;48643;51.670;5.808;2022-08-24T16:38:00;9.27;;;2.43;;
62584;SDS011;48643;51.670;5.808;2022-08-24T16:40:29;8.48;;;2.80;;
62584;SDS011;48643;51.670;5.808;2022-08-24T16:42:58;6.15;;;2.85;;
62584;SDS011;48643;51.670;5.808;2022-08-24T16:45:26;7.50;;;2.80;;
62584;SDS011;48643;51.670;5.808;2022-08-24T16:47:59;10.40;;;2.80;;
62584;SDS011;48643;51.670;5.808;2022-08-24T16:50:26;8.73;;;2.70;;
62584;SDS011;48643;51.670;5.808;2022-08-24T16:52:54;8.52;;;2.72;;
62584;SDS011;48643;51.670;5.808;2022-08-24T16:55:21;8.82;;;3.00;;
62584;SDS011;48643;51.670;5.808;2022-08-24T16:57:48;7.32;;;2.60;;
62584;SDS011;48643;51.670;5.808;2022-08-24T17:00:16;12.63;;;2.70;;
62584;SDS011;48643;51.670;5.808;2022-08-24T17:02:47;5.53;;;2.70;;
62584;SDS011;48643;51.670;5.808;2022-08-24T17:05:15;10.73;;;2.85;;
62584;SDS011;48643;51.670;5.808;2022-08-24T17:07:43;7.72;;;2.65;;
62584;SDS011;48643;51.670;5.808;2022-08-24T17:10:12;10.10;;;2.92;;
62584;SDS011;48643;51.670;5.808;2022-08-24T17:12:41;7.63;;;2.95;;
62584;SDS011;48643;51.670;5.808;2022-08-24T17:15:09;8.75;;;2.90;;
62584;SDS011;48643;51.670;5.808;2022-08-24T17:20:07;6.78;;;2.78;;
62584;SDS011;48643;51.670;5.808;2022-08-24T17:22:36;6.35;;;2.80;;
62584;SDS011;48643;51.670;5.808;2022-08-24T17:25:04;8.95;;;2.95;;
62584;SDS011;48643;51.670;5.808;2022-08-24T17:27:32;5.88;;;2.70;;
62584;SDS011;48643;51.670;5.808;2022-08-24T17:30:00;8.88;;;2.90;;
62584;SDS011;48643;51.670;5.808;2022-08-24T17:32:28;21.92;;;3.25;;
62584;SDS011;48643;51.670;5.808;2022-08-24T17:34:55;14.25;;;3.08;;
62584;SDS011;48643;51.670;5.808;2022-08-24T17:37:23;15.68;;;2.90;;
62584;SDS011;48643;51.670;5.808;2022-08-24T17:39:51;19.73;;;3.00;;
62584;SDS011;48643;51.670;5.808;2022-08-24T17:42:20;6.47;;;2.90;;
62584;SDS011;48643;51.670;5.808;2022-08-24T17:45:08;9.90;;;3.22;;
62584;SDS011;48643;51.670;5.808;2022-08-24T17:47:35;7.32;;;2.80;;
62584;SDS011;48643;51.670;5.808;2022-08-24T17:50:03;7.05;;;2.88;;
62584;SDS011;48643;51.670;5.808;2022-08-24T17:52:31;4.82;;;2.50;;
62584;SDS011;48643;51.670;5.808;2022-08-24T17:54:59;4.55;;;2.50;;
62584;SDS011;48643;51.670;5.808;2022-08-24T17:57:26;6.03;;;2.67;;
62584;SDS011;48643;51.670;5.808;2022-08-24T17:59:53;7.82;;;2.45;;
62584;SDS011;48643;51.670;5.808;2022-08-24T18:02:21;10.68;;;2.80;;
62584;SDS011;48643;51.670;5.808;2022-08-24T18:04:48;9.30;;;2.80;;
62584;SDS011;48643;51.670;5.808;2022-08-24T18:07:18;7.72;;;2.85;;
62584;SDS011;48643;51.670;5.808;2022-08-24T18:10:07;7.65;;;2.70;;
62584;SDS011;48643;51.670;5.808;2022-08-24T18:12:35;12.13;;;2.80;;
62584;SDS011;48643;51.670;5.808;2022-08-24T18:15:02;15.35;;;3.53;;
62584;SDS011;48643;51.670;5.808;2022-08-24T18:17:32;10.45;;;4.03;;
62584;SDS011;48643;51.670;5.808;2022-08-24T18:20:00;12.45;;;3.20;;
62584;SDS011;48643;51.670;5.808;2022-08-24T18:22:27;14.55;;;2.95;;
62584;SDS011;48643;51.670;5.808;2022-08-24T18:24:55;8.55;;;3.00;;
62584;SDS011;48643;51.670;5.808;2022-08-24T18:27:28;22.58;;;4.10;;
62584;SDS011;48643;51.670;5.808;2022-08-24T18:29:58;20.95;;;3.67;;
62584;SDS011;48643;51.670;5.808;2022-08-24T18:32:28;15.80;;;3.47;;